This is the latest recevied weather packets stored in our database for station/object JS2QVS-13. If no packets are shown the sender has not sent any weather packets the latest 10 day(s).
| Time | Temp. | Humidity | Pressure | Rain* | Wind** | Luminosity | Snow |
|---|---|---|---|---|---|---|---|
| 1777229741 | 15° C | 91% | 1003 hPa | 6.1 mm | - | - | - |
| 1777229141 | 15° C | 90% | 1002.9 hPa | 6.86 mm | - | - | - |
| 1777228541 | 15° C | 90% | 1003.1 hPa | 8.64 mm | - | - | - |
| 1777227941 | 15° C | 89% | 1003.2 hPa | 9.4 mm | - | - | - |
| 1777227341 | 15° C | 88% | 1003.5 hPa | 8.89 mm | - | - | - |
| 1777226741 | 15° C | 89% | 1003.6 hPa | 7.87 mm | - | - | - |
| 1777226141 | 15° C | 88% | 1003.8 hPa | 6.6 mm | - | - | - |
| 1777225540 | 15° C | 87% | 1004 hPa | 5.08 mm | - | - | - |
| 1777224941 | 15.56° C | 84% | 1004.2 hPa | 2.79 mm | - | - | - |
| 1777224340 | 16.11° C | 80% | 1004 hPa | 1.27 mm | - | - | - |
| 1777223740 | 16.67° C | 76% | 1003.8 hPa | 0.25 mm | - | - | - |
| 1777223140 | 17.22° C | 72% | 1003.7 hPa | 0 mm | - | - | - |
| 1777222540 | 17.22° C | 68% | 1003.6 hPa | 0 mm | - | - | - |
| 1777221940 | 17.78° C | 66% | 1003.7 hPa | 0 mm | - | - | - |
| 1777221342 | 17.78° C | 66% | 1004 hPa | 0 mm | - | - | - |
| 1777220742 | 17.78° C | 66% | 1003.9 hPa | 0 mm | - | - | - |
| 1777220142 | 17.78° C | 65% | 1004.2 hPa | 0 mm | - | - | - |
| 1777219542 | 17.78° C | 62% | 1004.4 hPa | 0 mm | - | - | - |
| 1777218942 | 17.78° C | 60% | 1004.7 hPa | 0 mm | - | - | - |
| 1777218340 | 18.33° C | 62% | 1005.4 hPa | 0 mm | - | - | - |
| 1777217741 | 17.78° C | 62% | 1005.6 hPa | 0 mm | - | - | - |
| 1777217141 | 18.33° C | 63% | 1006 hPa | 0 mm | - | - | - |
| 1777216540 | 17.78° C | 63% | 1006.2 hPa | 0 mm | - | - | - |
| 1777215940 | 18.33° C | 63% | 1006.6 hPa | 0 mm | - | - | - |
| 1777215340 | 18.33° C | 62% | 1006.8 hPa | 0 mm | - | - | - |
* Rain latest hour (hover to see other rain measurements)
** Current wind speed in m/s (hover to see current wind gust speed)